createdAt,value
2022-10-07T00:01:01.804Z,8.73
2022-10-07T00:03:30.265Z,8.76
2022-10-07T00:06:05.265Z,8.71
2022-10-07T00:08:33.740Z,8.45
2022-10-07T00:11:07.917Z,8.27
2022-10-07T00:13:38.687Z,8.23
2022-10-07T00:16:08.490Z,8.34
2022-10-07T00:18:36.599Z,8.23
2022-10-07T00:21:06.688Z,8.25
2022-10-07T00:23:35.190Z,8.44
2022-10-07T00:26:05.268Z,8.52
2022-10-07T00:28:33.781Z,8.28
2022-10-07T00:31:03.761Z,8.16
2022-10-07T00:33:34.030Z,7.96
2022-10-07T00:36:01.856Z,7.94
2022-10-07T00:38:29.587Z,7.89
2022-10-07T00:40:57.327Z,7.97
2022-10-07T00:43:29.568Z,7.91
2022-10-07T00:46:01.187Z,8.01
2022-10-07T00:48:31.688Z,8.03
2022-10-07T00:51:01.488Z,8.14
2022-10-07T00:53:32.443Z,8.18
2022-10-07T00:56:02.897Z,8.18
2022-10-07T00:58:35.914Z,8.14
2022-10-07T01:01:03.892Z,8.11
2022-10-07T01:03:33.754Z,8.00
2022-10-07T01:06:01.971Z,8.03
2022-10-07T01:08:29.793Z,8.10
2022-10-07T01:11:13.806Z,8.38
2022-10-07T01:13:55.547Z,8.41
2022-10-07T01:16:30.586Z,8.49
2022-10-07T01:19:08.210Z,8.54
2022-10-07T01:21:41.823Z,8.33
2022-10-07T01:24:23.145Z,8.20
2022-10-07T01:27:01.038Z,8.01
2022-10-07T01:29:34.923Z,7.93
2022-10-07T01:32:07.576Z,7.93
2022-10-07T01:34:37.301Z,7.98
2022-10-07T01:37:08.151Z,7.98
2022-10-07T01:39:41.503Z,7.97
2022-10-07T01:42:12.281Z,7.94
2022-10-07T01:44:40.889Z,7.93
2022-10-07T01:47:08.607Z,7.90
2022-10-07T01:49:36.977Z,8.06
2022-10-07T01:52:31.840Z,8.21
2022-10-07T01:55:17.558Z,8.18
2022-10-07T01:57:56.011Z,8.11
2022-10-07T02:00:24.216Z,8.18
2022-10-07T02:03:05.301Z,8.20
2022-10-07T02:05:44.057Z,8.16
2022-10-07T02:08:22.388Z,8.21
2022-10-07T02:11:01.469Z,8.30
2022-10-07T02:13:35.698Z,8.31
2022-10-07T02:16:10.862Z,8.35
2022-10-07T02:18:40.868Z,8.33
2022-10-07T02:21:09.951Z,8.23
2022-10-07T02:23:41.139Z,8.14
2022-10-07T02:26:11.082Z,8.30
2022-10-07T02:28:43.597Z,8.41
2022-10-07T02:31:18.127Z,8.48
2022-10-07T02:33:48.111Z,8.52
2022-10-07T02:36:21.233Z,8.54
2022-10-07T02:38:49.922Z,8.52
2022-10-07T02:41:32.169Z,8.34
2022-10-07T02:44:25.751Z,8.24
2022-10-07T02:47:00.250Z,8.30
2022-10-07T02:49:30.594Z,8.44
2022-10-07T02:52:01.350Z,8.44
2022-10-07T02:54:35.315Z,8.42
2022-10-07T02:57:05.193Z,8.33
2022-10-07T02:59:37.574Z,8.35
2022-10-07T03:02:09.305Z,8.34
2022-10-07T03:04:37.299Z,8.34
2022-10-07T03:07:05.811Z,8.37
2022-10-07T03:09:33.934Z,8.38
2022-10-07T03:12:01.769Z,8.37
2022-10-07T03:14:29.994Z,8.40
2022-10-07T03:16:59.177Z,8.41
2022-10-07T03:19:26.980Z,8.47
2022-10-07T03:21:56.991Z,8.41
2022-10-07T03:24:25.373Z,8.34
2022-10-07T03:26:54.015Z,8.41
2022-10-07T03:29:21.755Z,8.40
2022-10-07T03:31:49.998Z,8.38
2022-10-07T03:34:19.094Z,8.38
2022-10-07T03:36:49.333Z,8.33
2022-10-07T03:39:17.437Z,8.35
2022-10-07T03:41:45.478Z,8.33
2022-10-07T03:44:14.525Z,8.28
2022-10-07T03:46:42.342Z,8.17
2022-10-07T03:49:10.739Z,8.20
2022-10-07T03:51:39.868Z,8.23
2022-10-07T03:54:09.470Z,8.23
2022-10-07T03:56:37.769Z,8.17
2022-10-07T03:59:05.663Z,8.11
2022-10-07T04:01:33.729Z,8.11
2022-10-07T04:04:02.241Z,8.20
2022-10-07T04:06:34.434Z,8.18
2022-10-07T04:09:07.338Z,8.20
2022-10-07T04:11:35.862Z,8.10
2022-10-07T04:14:03.878Z,8.14
2022-10-07T04:16:37.808Z,8.11
2022-10-07T04:19:07.894Z,8.13
2022-10-07T04:21:35.624Z,8.23
2022-10-07T04:24:03.404Z,8.30
2022-10-07T04:26:33.411Z,8.25
2022-10-07T04:29:01.131Z,8.28
2022-10-07T04:31:29.323Z,8.34
2022-10-07T04:34:00.793Z,8.34
2022-10-07T04:36:35.989Z,8.30
2022-10-07T04:39:10.328Z,8.31
2022-10-07T04:41:44.314Z,8.38
2022-10-07T04:44:20.107Z,8.47
2022-10-07T04:46:56.878Z,8.54
2022-10-07T04:49:27.241Z,8.51
2022-10-07T04:51:56.709Z,8.52
2022-10-07T04:54:27.370Z,8.52
2022-10-07T04:56:57.973Z,8.58
2022-10-07T04:59:29.934Z,8.51
2022-10-07T05:01:58.541Z,8.58
2022-10-07T05:04:27.711Z,8.47
2022-10-07T05:06:56.746Z,8.48
2022-10-07T05:09:25.537Z,8.47
2022-10-07T05:11:55.572Z,8.52
2022-10-07T05:14:25.049Z,8.55
2022-10-07T05:16:53.895Z,8.54
2022-10-07T05:19:25.889Z,8.54
2022-10-07T05:21:55.067Z,8.47
2022-10-07T05:24:23.053Z,8.44
2022-10-07T05:26:52.067Z,8.44
2022-10-07T05:29:19.828Z,8.38
2022-10-07T05:31:53.482Z,8.41
2022-10-07T05:34:24.798Z,8.44
2022-10-07T05:36:55.598Z,8.54
2022-10-07T05:39:23.907Z,8.47
2022-10-07T05:42:07.315Z,8.48
2022-10-07T05:44:41.715Z,8.56
2022-10-07T05:47:11.064Z,8.64
2022-10-07T05:49:39.771Z,8.66
2022-10-07T05:52:07.736Z,8.66
2022-10-07T05:54:36.006Z,8.75
2022-10-07T05:57:04.269Z,8.85
2022-10-07T05:59:32.097Z,8.90
2022-10-07T06:02:01.067Z,8.90
2022-10-07T06:04:31.245Z,9.00
2022-10-07T06:06:59.015Z,9.02
2022-10-07T06:09:46.462Z,9.22
2022-10-07T06:12:34.456Z,9.75
2022-10-07T06:15:07.267Z,10.33
2022-10-07T06:17:35.298Z,10.77
2022-10-07T06:20:09.258Z,11.31
2022-10-07T06:22:37.135Z,11.83
2022-10-07T06:25:06.559Z,12.38
2022-10-07T06:27:34.881Z,12.92
2022-10-07T06:30:03.115Z,13.39
2022-10-07T06:32:32.629Z,13.60
2022-10-07T06:35:01.945Z,13.70
2022-10-07T06:37:33.003Z,14.10
2022-10-07T06:40:01.616Z,14.26
2022-10-07T06:42:32.715Z,14.36
2022-10-07T06:45:20.388Z,14.89
2022-10-07T06:47:51.075Z,15.20
2022-10-07T06:50:19.728Z,15.67
2022-10-07T06:52:49.358Z,16.19
2022-10-07T06:55:18.059Z,16.53
2022-10-07T06:57:46.765Z,16.81
2022-10-07T07:00:18.116Z,17.10
2022-10-07T07:02:46.566Z,17.11
2022-10-07T07:05:16.267Z,17.53
2022-10-07T07:07:46.294Z,17.69
2022-10-07T07:10:15.932Z,17.80
2022-10-07T07:12:48.213Z,18.54
2022-10-07T07:15:16.650Z,19.09
2022-10-07T07:17:44.809Z,19.46
2022-10-07T07:20:14.355Z,19.63
2022-10-07T07:22:43.328Z,19.52
2022-10-07T07:25:11.822Z,19.95
2022-10-07T07:27:41.555Z,20.48
2022-10-07T07:30:12.063Z,20.53
2022-10-07T07:32:40.233Z,20.41
2022-10-07T07:35:09.111Z,20.42
2022-10-07T07:37:37.184Z,20.97
2022-10-07T07:40:05.585Z,21.91
2022-10-07T07:42:34.852Z,22.13
2022-10-07T07:45:04.621Z,22.22
2022-10-07T07:47:34.180Z,22.70
2022-10-07T07:50:02.176Z,22.57
2022-10-07T07:52:32.984Z,22.22
2022-10-07T07:55:02.608Z,22.19
2022-10-07T07:57:31.460Z,21.85
2022-10-07T08:00:05.190Z,22.01
2022-10-07T08:02:41.797Z,21.95
2022-10-07T08:05:12.824Z,22.43
2022-10-07T08:07:40.985Z,22.90
2022-10-07T08:10:10.602Z,22.76
2022-10-07T08:12:39.581Z,22.78
2022-10-07T08:15:10.781Z,23.55
2022-10-07T08:17:39.162Z,23.19
2022-10-07T08:20:10.746Z,24.31
2022-10-07T08:22:39.340Z,24.00
2022-10-07T08:25:08.175Z,23.89
2022-10-07T08:27:36.485Z,23.31
2022-10-07T08:30:04.799Z,23.52
2022-10-07T08:32:33.952Z,23.68
2022-10-07T08:35:01.697Z,23.89
2022-10-07T08:37:29.466Z,23.24
2022-10-07T08:39:57.223Z,23.78
2022-10-07T08:42:31.250Z,23.65
2022-10-07T08:44:59.442Z,23.63
2022-10-07T08:47:34.649Z,24.82
2022-10-07T08:50:16.529Z,25.59
2022-10-07T08:52:51.227Z,24.92
2022-10-07T08:55:24.001Z,25.30
2022-10-07T08:58:19.554Z,24.99
2022-10-07T09:00:54.029Z,24.87
2022-10-07T09:03:35.769Z,24.58
2022-10-07T09:06:13.768Z,25.23
2022-10-07T09:08:45.976Z,25.73
2022-10-07T09:11:20.140Z,25.98
2022-10-07T09:13:53.293Z,25.53
2022-10-07T09:16:26.494Z,25.36
2022-10-07T09:18:56.889Z,25.79
2022-10-07T09:21:37.564Z,26.00
2022-10-07T09:24:17.314Z,26.39
2022-10-07T09:26:45.037Z,27.03
2022-10-07T09:29:13.023Z,26.24
2022-10-07T09:31:40.915Z,26.00
2022-10-07T09:34:19.421Z,25.33
2022-10-07T09:37:15.010Z,26.82
2022-10-07T09:39:44.513Z,27.33
2022-10-07T09:42:38.524Z,26.00
2022-10-07T09:45:20.540Z,26.02
2022-10-07T09:47:52.509Z,26.61
2022-10-07T09:50:38.099Z,26.37
2022-10-07T09:53:21.524Z,26.80
2022-10-07T09:55:50.500Z,27.39
2022-10-07T09:58:21.476Z,26.44
2022-10-07T10:00:51.915Z,25.80
2022-10-07T10:03:20.226Z,25.69
2022-10-07T10:05:57.619Z,25.58
2022-10-07T10:08:30.320Z,25.40
2022-10-07T10:11:01.340Z,25.04
2022-10-07T10:13:32.588Z,24.33
2022-10-07T10:16:01.311Z,23.90
2022-10-07T10:18:34.396Z,24.28
2022-10-07T10:21:30.021Z,24.05
2022-10-07T10:24:00.491Z,24.27
2022-10-07T10:26:53.824Z,24.64
2022-10-07T10:29:35.384Z,25.35
2022-10-07T10:32:34.721Z,24.99
2022-10-07T10:35:09.262Z,25.50
2022-10-07T10:37:58.206Z,25.22
2022-10-07T10:40:33.884Z,24.43
2022-10-07T10:43:17.511Z,23.76
2022-10-07T10:45:55.397Z,23.80
2022-10-07T10:48:33.994Z,24.03
2022-10-07T10:51:12.058Z,23.80
2022-10-07T10:53:51.740Z,23.45
2022-10-07T10:56:34.260Z,24.07
2022-10-07T10:59:16.583Z,24.27
2022-10-07T11:01:46.231Z,24.19
2022-10-07T11:04:27.599Z,23.56
2022-10-07T11:07:00.413Z,24.02
2022-10-07T11:09:38.646Z,24.20
2022-10-07T11:12:18.957Z,24.37
2022-10-07T11:14:54.527Z,23.99
2022-10-07T11:17:31.228Z,23.80
2022-10-07T11:20:06.575Z,24.07
2022-10-07T11:22:38.898Z,23.87
2022-10-07T11:25:22.034Z,23.80
2022-10-07T11:27:54.491Z,23.79
2022-10-07T11:30:24.795Z,24.17
2022-10-07T11:32:59.968Z,24.46
2022-10-07T11:35:32.352Z,24.06
2022-10-07T11:38:07.417Z,23.97
2022-10-07T11:40:36.119Z,23.46
2022-10-07T11:43:09.492Z,23.70
2022-10-07T11:45:42.325Z,23.63
2022-10-07T11:48:15.076Z,23.24
2022-10-07T11:50:55.875Z,23.17
2022-10-07T11:53:26.805Z,23.45
2022-10-07T11:56:00.289Z,23.96
2022-10-07T11:58:32.932Z,24.07
2022-10-07T12:01:32.642Z,23.85
2022-10-07T12:04:27.607Z,24.03
2022-10-07T12:07:32.832Z,24.75
2022-10-07T12:10:22.008Z,24.34
2022-10-07T12:12:53.129Z,23.01
2022-10-07T12:15:34.783Z,23.03
2022-10-07T12:18:26.156Z,22.86
2022-10-07T12:21:08.654Z,23.04
2022-10-07T12:23:46.094Z,22.86
2022-10-07T12:26:51.292Z,23.34
2022-10-07T12:29:48.298Z,23.41
2022-10-07T12:32:48.886Z,23.52
2022-10-07T12:35:41.532Z,23.55
2022-10-07T12:38:16.743Z,24.19
2022-10-07T12:40:49.771Z,23.96
2022-10-07T12:43:34.404Z,24.44
2022-10-07T12:46:05.709Z,24.13
2022-10-07T12:48:41.112Z,23.79
2022-10-07T12:51:18.341Z,22.84
2022-10-07T12:53:47.680Z,21.77
2022-10-07T12:56:22.027Z,22.39
2022-10-07T12:59:29.944Z,22.45
2022-10-07T13:02:41.797Z,21.86
2022-10-07T13:05:44.636Z,21.35
2022-10-07T13:08:42.235Z,21.03
2022-10-07T13:11:49.998Z,21.06
2022-10-07T13:14:22.856Z,21.34
2022-10-07T13:16:55.922Z,21.50
2022-10-07T13:19:31.734Z,21.65
2022-10-07T13:22:09.401Z,21.54
2022-10-07T13:24:41.945Z,21.54
2022-10-07T13:27:10.531Z,21.17
2022-10-07T13:29:39.681Z,20.80
2022-10-07T13:32:08.670Z,20.75
2022-10-07T13:34:36.814Z,20.69
2022-10-07T13:37:26.236Z,20.79
2022-10-07T13:39:54.093Z,20.42
2022-10-07T13:42:25.755Z,20.24
2022-10-07T13:44:54.528Z,20.34
2022-10-07T13:47:24.038Z,20.25
2022-10-07T13:49:54.984Z,19.90
2022-10-07T13:52:32.301Z,19.81
2022-10-07T13:55:00.103Z,19.81
2022-10-07T13:57:31.094Z,19.26
2022-10-07T13:59:59.928Z,19.18
2022-10-07T14:02:28.160Z,19.12
2022-10-07T14:05:01.689Z,19.09
2022-10-07T14:07:31.052Z,18.79
2022-10-07T14:10:04.896Z,18.87
2022-10-07T14:12:37.775Z,18.61
2022-10-07T14:15:13.397Z,18.55
2022-10-07T14:17:44.572Z,18.33
2022-10-07T14:20:21.554Z,18.31
2022-10-07T14:22:53.426Z,18.37
2022-10-07T14:25:23.690Z,18.27
2022-10-07T14:28:04.750Z,18.31
2022-10-07T14:30:56.550Z,18.23
2022-10-07T14:33:48.738Z,18.11
2022-10-07T14:36:19.815Z,17.90
2022-10-07T14:38:50.835Z,17.87
2022-10-07T14:41:20.598Z,17.90
2022-10-07T14:43:51.820Z,17.87
2022-10-07T14:46:21.712Z,17.86
2022-10-07T14:48:50.637Z,17.80
2022-10-07T14:51:21.442Z,17.86
2022-10-07T14:53:54.553Z,17.79
2022-10-07T14:56:26.823Z,17.68
2022-10-07T14:58:56.163Z,17.63
2022-10-07T15:01:24.420Z,17.61
2022-10-07T15:03:52.619Z,17.52
2022-10-07T15:06:21.081Z,17.45
2022-10-07T15:08:51.119Z,17.46
2022-10-07T15:11:20.687Z,17.39
2022-10-07T15:13:49.728Z,17.41
2022-10-07T15:16:19.551Z,17.34
2022-10-07T15:18:52.207Z,17.36
2022-10-07T15:21:21.718Z,17.35
2022-10-07T15:23:53.026Z,17.38
2022-10-07T15:26:24.072Z,17.42
2022-10-07T15:28:54.260Z,17.41
2022-10-07T15:31:23.436Z,17.36
2022-10-07T15:33:51.179Z,17.31
2022-10-07T15:36:18.988Z,17.21
2022-10-07T15:38:46.962Z,17.12
2022-10-07T15:41:30.472Z,17.08
2022-10-07T15:43:59.006Z,17.03
2022-10-07T15:46:27.797Z,17.01
2022-10-07T15:48:56.960Z,16.88
2022-10-07T15:51:25.424Z,16.80
2022-10-07T15:53:53.536Z,16.77
2022-10-07T15:56:22.661Z,16.70
2022-10-07T15:58:50.396Z,16.56
2022-10-07T16:01:18.502Z,16.56
2022-10-07T16:03:48.749Z,16.47
2022-10-07T16:06:20.640Z,16.46
2022-10-07T16:08:48.553Z,16.32
2022-10-07T16:11:16.531Z,16.25
2022-10-07T16:13:47.456Z,16.19
2022-10-07T16:16:17.114Z,16.15
2022-10-07T16:18:46.770Z,16.20
2022-10-07T16:21:16.827Z,16.16
2022-10-07T16:23:47.112Z,16.10
2022-10-07T16:26:17.138Z,16.02
2022-10-07T16:29:05.314Z,15.88
2022-10-07T16:31:34.614Z,15.65
2022-10-07T16:34:03.315Z,15.55
2022-10-07T16:36:35.957Z,15.53
2022-10-07T16:39:05.963Z,15.62
2022-10-07T16:41:33.988Z,15.59
2022-10-07T16:44:04.684Z,15.57
2022-10-07T16:46:33.163Z,15.47
2022-10-07T16:49:01.396Z,15.47
2022-10-07T16:51:30.925Z,15.34
2022-10-07T16:54:03.360Z,15.34
2022-10-07T16:56:33.592Z,15.28
2022-10-07T16:59:04.706Z,15.11
2022-10-07T17:01:32.996Z,14.96
2022-10-07T17:04:01.985Z,14.92
2022-10-07T17:06:31.572Z,14.85
2022-10-07T17:09:02.960Z,14.86
2022-10-07T17:11:32.552Z,14.83
2022-10-07T17:14:01.875Z,14.76
2022-10-07T17:16:33.618Z,14.62
2022-10-07T17:19:01.809Z,14.59
2022-10-07T17:21:29.598Z,14.51
2022-10-07T17:23:58.628Z,14.45
2022-10-07T17:26:27.905Z,14.25
2022-10-07T17:28:59.387Z,14.21
2022-10-07T17:31:28.406Z,14.04
2022-10-07T17:33:58.254Z,13.87
2022-10-07T17:36:26.879Z,13.90
2022-10-07T17:38:55.311Z,13.84
2022-10-07T17:41:25.244Z,13.88
2022-10-07T17:43:55.925Z,13.74
2022-10-07T17:46:25.865Z,13.73
2022-10-07T17:48:55.680Z,13.62
2022-10-07T17:51:28.089Z,13.52
2022-10-07T17:53:56.798Z,13.46
2022-10-07T17:56:25.152Z,13.40
2022-10-07T17:58:53.159Z,13.39
2022-10-07T18:01:24.240Z,13.29
2022-10-07T18:03:53.570Z,13.40
2022-10-07T18:06:21.460Z,13.25
2022-10-07T18:08:50.771Z,13.09
2022-10-07T18:11:18.417Z,12.91
2022-10-07T18:14:03.683Z,12.72
2022-10-07T18:16:35.320Z,12.44
2022-10-07T18:19:03.626Z,12.27
2022-10-07T18:21:32.505Z,12.09
2022-10-07T18:24:01.671Z,12.07
2022-10-07T18:26:29.662Z,12.22
2022-10-07T18:28:58.093Z,12.47
2022-10-07T18:31:27.027Z,12.50
2022-10-07T18:33:54.857Z,12.43
2022-10-07T18:36:22.904Z,12.33
2022-10-07T18:38:50.675Z,12.23
2022-10-07T18:41:22.209Z,12.04
2022-10-07T18:43:49.994Z,12.19
2022-10-07T18:46:19.717Z,12.31
2022-10-07T18:48:48.679Z,12.23
2022-10-07T18:51:17.710Z,12.19
2022-10-07T18:53:47.561Z,12.19
2022-10-07T18:56:18.089Z,12.20
2022-10-07T18:58:49.471Z,12.20
2022-10-07T19:01:19.117Z,12.17
2022-10-07T19:03:48.752Z,12.20
2022-10-07T19:06:18.623Z,12.17
2022-10-07T19:08:47.163Z,12.19
2022-10-07T19:11:17.551Z,12.19
2022-10-07T19:13:49.889Z,12.14
2022-10-07T19:16:19.423Z,12.26
2022-10-07T19:18:48.761Z,12.33
2022-10-07T19:21:18.162Z,12.29
2022-10-07T19:23:47.009Z,12.27
2022-10-07T19:26:17.761Z,12.20
2022-10-07T19:28:52.177Z,12.14
2022-10-07T19:31:23.333Z,12.07
2022-10-07T19:33:52.564Z,12.00
2022-10-07T19:36:21.863Z,11.94
2022-10-07T19:38:52.424Z,11.93
2022-10-07T19:41:23.007Z,11.89
2022-10-07T19:43:52.827Z,11.90
2022-10-07T19:46:22.305Z,11.93
2022-10-07T19:48:50.500Z,11.96
2022-10-07T19:51:20.343Z,11.97
2022-10-07T19:53:48.245Z,12.03
2022-10-07T19:56:19.999Z,11.89
2022-10-07T19:58:50.314Z,11.92
2022-10-07T20:01:22.063Z,11.92
2022-10-07T20:03:56.022Z,11.86
2022-10-07T20:06:25.156Z,11.83
2022-10-07T20:08:53.367Z,11.81
2022-10-07T20:11:21.752Z,11.87
2022-10-07T20:13:49.631Z,11.87
2022-10-07T20:16:20.915Z,11.85
2022-10-07T20:18:50.877Z,11.79
2022-10-07T20:21:20.608Z,11.72
2022-10-07T20:23:49.249Z,11.68
2022-10-07T20:26:19.388Z,11.68
2022-10-07T20:28:48.409Z,11.61
2022-10-07T20:31:18.631Z,11.61
2022-10-07T20:33:49.353Z,11.48
2022-10-07T20:36:19.207Z,11.49
2022-10-07T20:39:05.039Z,11.43
2022-10-07T20:41:51.003Z,11.36
2022-10-07T20:44:19.409Z,11.38
2022-10-07T20:46:47.236Z,11.38
2022-10-07T20:49:22.596Z,11.35
2022-10-07T20:51:50.720Z,11.25
2022-10-07T20:54:19.128Z,11.14
2022-10-07T20:56:46.967Z,11.10
2022-10-07T20:59:15.018Z,11.06
2022-10-07T21:01:44.149Z,11.03
2022-10-07T21:04:13.571Z,11.10
2022-10-07T21:06:42.991Z,11.07
2022-10-07T21:09:11.759Z,11.21
2022-10-07T21:11:39.596Z,11.18
2022-10-07T21:14:07.384Z,11.21
2022-10-07T21:16:36.344Z,11.21
2022-10-07T21:19:04.456Z,11.27
2022-10-07T21:21:32.260Z,11.22
2022-10-07T21:24:01.545Z,11.25
2022-10-07T21:26:29.223Z,11.27
2022-10-07T21:28:56.958Z,11.27
2022-10-07T21:31:25.415Z,11.24
2022-10-07T21:33:53.455Z,11.24
2022-10-07T21:36:23.681Z,11.27
2022-10-07T21:38:57.733Z,11.28
2022-10-07T21:41:30.964Z,11.22
2022-10-07T21:43:59.241Z,11.24
2022-10-07T21:46:28.763Z,11.24
2022-10-07T21:48:57.622Z,11.27
2022-10-07T21:51:26.949Z,11.24
2022-10-07T21:53:55.309Z,11.22
2022-10-07T21:56:23.100Z,11.24
2022-10-07T21:58:53.176Z,11.31
2022-10-07T22:01:23.449Z,11.27
2022-10-07T22:03:54.919Z,11.27
2022-10-07T22:06:43.109Z,11.28
2022-10-07T22:09:10.489Z,11.27
2022-10-07T22:11:38.996Z,11.28
2022-10-07T22:14:12.306Z,11.25
2022-10-07T22:16:40.948Z,11.30
2022-10-07T22:19:10.629Z,11.30
2022-10-07T22:21:40.264Z,11.28
2022-10-07T22:24:09.742Z,11.31
2022-10-07T22:26:38.892Z,11.30
2022-10-07T22:29:09.364Z,11.36
2022-10-07T22:31:37.580Z,11.34
2022-10-07T22:34:05.983Z,11.34
2022-10-07T22:36:32.885Z,11.32
2022-10-07T22:39:01.448Z,11.27
2022-10-07T22:41:29.440Z,11.32
2022-10-07T22:43:58.959Z,11.31
2022-10-07T22:46:29.157Z,11.31
2022-10-07T22:48:58.465Z,11.24
2022-10-07T22:51:28.299Z,11.32
2022-10-07T22:53:57.441Z,11.27
2022-10-07T22:56:27.493Z,11.24
2022-10-07T22:58:58.683Z,11.25
2022-10-07T23:01:29.619Z,11.18
2022-10-07T23:03:58.796Z,11.17
2022-10-07T23:06:26.576Z,11.18
2022-10-07T23:08:54.515Z,11.18
2022-10-07T23:11:24.292Z,11.07
2022-10-07T23:13:52.683Z,11.03
2022-10-07T23:16:22.980Z,11.03
2022-10-07T23:18:53.558Z,11.04
2022-10-07T23:21:23.570Z,11.06
2022-10-07T23:23:52.871Z,11.07
2022-10-07T23:26:21.523Z,11.03
2022-10-07T23:28:50.880Z,11.03
2022-10-07T23:31:19.368Z,10.97
2022-10-07T23:33:48.589Z,10.99
2022-10-07T23:36:20.046Z,10.91
2022-10-07T23:38:48.952Z,10.87
2022-10-07T23:41:19.336Z,10.87
2022-10-07T23:43:49.124Z,10.90
2022-10-07T23:46:17.281Z,10.93
2022-10-07T23:48:45.092Z,10.90
2022-10-07T23:51:15.103Z,10.84
2022-10-07T23:53:44.221Z,10.83
2022-10-07T23:56:12.039Z,10.80
2022-10-07T23:58:39.893Z,10.83
